createdAt,value
2018-06-28T00:01:31.600Z,22.90
2018-06-28T00:04:06.716Z,22.90
2018-06-28T00:06:41.800Z,22.90
2018-06-28T00:09:16.732Z,22.80
2018-06-28T00:11:51.724Z,22.80
2018-06-28T00:14:26.720Z,22.80
2018-06-28T00:17:01.659Z,22.80
2018-06-28T00:19:36.782Z,22.90
2018-06-28T00:22:11.849Z,22.80
2018-06-28T00:24:46.853Z,22.80
2018-06-28T00:27:21.956Z,22.80
2018-06-28T00:29:56.952Z,22.80
2018-06-28T00:32:32.232Z,22.80
2018-06-28T00:35:07.384Z,22.80
2018-06-28T00:37:42.574Z,22.80
2018-06-28T00:40:17.559Z,22.80
2018-06-28T00:42:52.612Z,22.80
2018-06-28T00:45:27.631Z,22.80
2018-06-28T00:48:02.709Z,22.70
2018-06-28T00:50:37.756Z,22.70
2018-06-28T00:53:12.925Z,22.70
2018-06-28T00:55:47.981Z,22.70
2018-06-28T00:58:22.952Z,22.70
2018-06-28T01:00:57.968Z,22.70
2018-06-28T01:03:33.140Z,22.70
2018-06-28T01:06:09.088Z,22.70
2018-06-28T01:08:44.374Z,22.70
2018-06-28T01:11:19.364Z,22.70
2018-06-28T01:13:54.428Z,22.70
2018-06-28T01:16:29.381Z,22.70
2018-06-28T01:19:04.884Z,22.70
2018-06-28T01:21:39.920Z,22.60
2018-06-28T01:24:15.015Z,22.70
2018-06-28T01:26:50.004Z,22.60
2018-06-28T01:29:25.139Z,22.60
2018-06-28T01:32:00.145Z,22.60
2018-06-28T01:34:35.187Z,22.60
2018-06-28T01:37:10.321Z,22.60
2018-06-28T01:39:45.389Z,22.60
2018-06-28T01:43:32.027Z,22.60
2018-06-28T01:46:07.275Z,22.60
2018-06-28T01:48:42.512Z,22.60
2018-06-28T01:51:17.607Z,22.60
2018-06-28T01:53:52.597Z,22.60
2018-06-28T01:56:27.689Z,22.50
2018-06-28T01:59:02.712Z,22.50
2018-06-28T02:01:37.681Z,22.50
2018-06-28T02:04:12.796Z,22.50
2018-06-28T02:06:47.960Z,22.50
2018-06-28T02:09:23.116Z,22.50
2018-06-28T02:11:58.219Z,22.50
2018-06-28T02:14:33.207Z,22.50
2018-06-28T02:17:08.445Z,22.50
2018-06-28T02:19:43.446Z,22.50
2018-06-28T02:22:18.541Z,22.50
2018-06-28T02:24:53.615Z,22.50
2018-06-28T02:27:28.653Z,22.50
2018-06-28T02:30:03.900Z,22.40
2018-06-28T02:32:38.809Z,22.50
2018-06-28T02:35:13.872Z,22.40
2018-06-28T02:37:49.189Z,22.50
2018-06-28T02:40:24.539Z,22.40
2018-06-28T02:42:59.583Z,22.40
2018-06-28T02:45:34.571Z,22.40
2018-06-28T02:48:09.536Z,22.40
2018-06-28T02:50:44.521Z,22.40
2018-06-28T02:53:19.756Z,22.40
2018-06-28T02:55:54.784Z,22.40
2018-06-28T02:58:29.836Z,22.40
2018-06-28T03:01:04.961Z,22.40
2018-06-28T03:03:40.080Z,22.40
2018-06-28T03:06:15.025Z,22.40
2018-06-28T03:08:50.180Z,22.40
2018-06-28T03:13:59.899Z,22.40
2018-06-28T03:16:34.872Z,22.30
2018-06-28T03:19:09.807Z,22.30
2018-06-28T03:21:44.944Z,22.40
2018-06-28T03:24:20.036Z,22.30
2018-06-28T03:26:54.993Z,22.30
2018-06-28T03:29:30.112Z,22.30
2018-06-28T03:32:05.626Z,22.30
2018-06-28T03:34:40.532Z,22.30
2018-06-28T03:37:15.592Z,22.30
2018-06-28T03:42:25.257Z,22.30
2018-06-28T03:45:00.351Z,22.30
2018-06-28T03:47:35.344Z,22.30
2018-06-28T03:50:10.284Z,22.30
2018-06-28T03:52:45.324Z,22.30
2018-06-28T03:55:20.323Z,22.30
2018-06-28T03:57:55.458Z,22.20
2018-06-28T04:00:30.412Z,22.20
2018-06-28T04:03:05.630Z,22.20
2018-06-28T04:05:40.579Z,22.20
2018-06-28T04:08:15.784Z,22.20
2018-06-28T04:10:50.842Z,22.20
2018-06-28T04:13:25.941Z,22.20
2018-06-28T04:16:00.840Z,22.20
2018-06-28T04:18:35.788Z,22.20
2018-06-28T04:21:10.879Z,22.20
2018-06-28T04:23:46.056Z,22.20
2018-06-28T04:26:21.117Z,22.30
2018-06-28T04:28:56.027Z,22.30
2018-06-28T04:31:31.073Z,22.40
2018-06-28T04:34:06.109Z,22.40
2018-06-28T04:36:41.188Z,22.50
2018-06-28T04:39:16.251Z,22.50
2018-06-28T04:41:51.416Z,22.60
2018-06-28T04:44:26.565Z,22.70
2018-06-28T04:47:01.628Z,22.70
2018-06-28T04:49:36.756Z,22.80
2018-06-28T04:52:11.899Z,22.80
2018-06-28T04:54:46.933Z,22.80
2018-06-28T04:57:22.031Z,22.80
2018-06-28T04:59:57.184Z,22.80
2018-06-28T05:02:32.228Z,22.80
2018-06-28T05:05:07.540Z,22.90
2018-06-28T05:07:42.608Z,22.90
2018-06-28T05:10:17.681Z,22.90
2018-06-28T05:12:52.869Z,23.00
2018-06-28T05:15:28.085Z,23.10
2018-06-28T05:18:03.256Z,23.10
2018-06-28T05:20:38.254Z,23.20
2018-06-28T05:23:13.213Z,23.10
2018-06-28T05:25:48.208Z,23.10
2018-06-28T05:28:23.212Z,23.10
2018-06-28T05:30:58.303Z,23.10
2018-06-28T05:33:33.384Z,23.10
2018-06-28T05:36:08.520Z,23.10
2018-06-28T05:38:43.639Z,23.10
2018-06-28T05:41:18.783Z,23.10
2018-06-28T05:43:53.789Z,23.10
2018-06-28T05:46:28.761Z,23.10
2018-06-28T05:49:03.932Z,23.00
2018-06-28T05:51:39.048Z,23.00
2018-06-28T05:54:14.053Z,23.00
2018-06-28T05:56:49.365Z,22.80
2018-06-28T05:59:24.660Z,22.80
2018-06-28T06:01:59.779Z,22.70
2018-06-28T06:04:34.808Z,21.70
2018-06-28T06:07:09.961Z,21.40
2018-06-28T06:09:45.017Z,21.40
2018-06-28T06:12:20.072Z,21.70
2018-06-28T06:14:55.101Z,21.50
2018-06-28T06:17:30.212Z,21.00
2018-06-28T06:20:05.700Z,20.90
2018-06-28T06:22:40.802Z,20.80
2018-06-28T06:25:15.810Z,21.10
2018-06-28T06:27:50.751Z,21.10
2018-06-28T06:30:25.813Z,21.30
2018-06-28T06:33:00.936Z,21.40
2018-06-28T06:35:35.988Z,21.40
2018-06-28T06:38:11.077Z,21.60
2018-06-28T06:40:46.293Z,21.70
2018-06-28T06:43:21.251Z,21.30
2018-06-28T06:45:56.424Z,21.50
2018-06-28T06:51:06.166Z,21.70
2018-06-28T06:53:41.089Z,21.70
2018-06-28T06:56:16.168Z,21.80
2018-06-28T06:58:51.362Z,21.90
2018-06-28T07:01:26.472Z,22.00
2018-06-28T07:04:01.484Z,22.00
2018-06-28T07:06:36.440Z,22.20
2018-06-28T07:09:12.705Z,22.20
2018-06-28T07:11:47.792Z,22.00
2018-06-28T07:14:22.884Z,22.20
2018-06-28T07:16:57.930Z,22.30
2018-06-28T07:19:33.093Z,22.40
2018-06-28T07:22:08.010Z,22.30
2018-06-28T07:24:43.099Z,22.20
2018-06-28T07:27:18.236Z,22.30
2018-06-28T07:29:53.188Z,22.40
2018-06-28T07:32:28.280Z,22.50
2018-06-28T07:35:03.509Z,22.50
2018-06-28T07:37:38.616Z,22.30
2018-06-28T07:40:13.577Z,22.40
2018-06-28T07:42:48.640Z,22.50
2018-06-28T07:45:23.735Z,22.60
2018-06-28T07:47:58.804Z,22.80
2018-06-28T07:50:34.092Z,23.00
2018-06-28T07:53:09.080Z,23.00
2018-06-28T07:55:44.029Z,23.00
2018-06-28T07:58:19.157Z,23.00
2018-06-28T08:00:54.204Z,23.10
2018-06-28T08:03:29.336Z,23.30
2018-06-28T08:06:04.448Z,23.80
2018-06-28T08:08:39.571Z,24.50
2018-06-28T08:11:14.625Z,25.20
2018-06-28T08:13:50.109Z,25.10
2018-06-28T08:16:25.223Z,25.00
2018-06-28T08:19:00.260Z,24.80
2018-06-28T08:21:35.466Z,24.80
2018-06-28T08:24:10.465Z,24.80
2018-06-28T08:26:45.629Z,24.80
2018-06-28T08:29:20.765Z,24.80
2018-06-28T08:31:55.737Z,24.80
2018-06-28T08:34:30.804Z,24.90
2018-06-28T08:37:05.928Z,24.90
2018-06-28T08:42:15.696Z,24.90
2018-06-28T08:44:50.748Z,25.00
2018-06-28T08:47:25.983Z,25.20
2018-06-28T08:50:01.137Z,25.20
2018-06-28T08:52:36.364Z,25.30
2018-06-28T08:55:11.434Z,25.20
2018-06-28T08:57:46.601Z,25.30
2018-06-28T09:00:21.663Z,25.30
2018-06-28T09:02:56.806Z,25.40
2018-06-28T09:05:31.930Z,25.30
2018-06-28T09:08:07.056Z,25.40
2018-06-28T09:10:42.206Z,25.40
2018-06-28T09:13:17.200Z,25.40
2018-06-28T09:15:52.204Z,25.40
2018-06-28T09:18:27.292Z,25.40
2018-06-28T09:21:02.376Z,25.60
2018-06-28T09:23:37.480Z,25.60
2018-06-28T09:26:12.572Z,25.70
2018-06-28T09:28:47.513Z,25.70
2018-06-28T09:31:22.645Z,25.80
2018-06-28T09:33:57.671Z,25.50
2018-06-28T09:36:33.084Z,25.50
2018-06-28T09:39:09.548Z,25.60
2018-06-28T09:41:44.589Z,25.70
2018-06-28T09:44:19.591Z,25.80
2018-06-28T09:46:54.640Z,25.70
2018-06-28T09:49:29.836Z,25.60
2018-06-28T09:52:05.046Z,25.60
2018-06-28T09:54:40.082Z,25.60
2018-06-28T09:57:15.028Z,25.60
2018-06-28T09:59:50.188Z,25.60
2018-06-28T10:02:25.480Z,25.60
2018-06-28T10:05:00.479Z,25.50
2018-06-28T10:07:35.385Z,25.50
2018-06-28T10:10:10.495Z,25.50
2018-06-28T10:12:45.589Z,25.40
2018-06-28T10:15:20.750Z,25.60
2018-06-28T10:17:55.836Z,25.70
2018-06-28T10:20:30.919Z,25.80
2018-06-28T10:23:05.887Z,25.70
2018-06-28T10:25:40.825Z,25.70
2018-06-28T10:28:15.912Z,25.70
2018-06-28T10:30:50.983Z,25.60
2018-06-28T10:33:26.008Z,25.70
2018-06-28T10:36:00.961Z,25.70
2018-06-28T10:38:36.050Z,25.60
2018-06-28T10:41:11.180Z,25.50
2018-06-28T10:43:46.240Z,25.50
2018-06-28T10:46:21.329Z,25.60
2018-06-28T10:48:56.388Z,25.60
2018-06-28T10:51:31.480Z,25.70
2018-06-28T10:54:07.016Z,25.70
2018-06-28T10:56:42.048Z,25.70
2018-06-28T10:59:17.211Z,25.70
2018-06-28T11:01:52.225Z,25.70
2018-06-28T11:04:27.110Z,25.70
2018-06-28T11:07:02.175Z,25.80
2018-06-28T11:09:37.304Z,25.80
2018-06-28T11:12:12.397Z,25.90
2018-06-28T11:14:47.483Z,25.80
2018-06-28T11:17:22.564Z,25.90
2018-06-28T11:19:57.548Z,25.90
2018-06-28T11:22:32.595Z,25.90
2018-06-28T11:25:07.747Z,25.90
2018-06-28T11:27:42.647Z,26.20
2018-06-28T11:30:17.759Z,26.20
2018-06-28T11:32:52.828Z,26.20
2018-06-28T11:35:27.869Z,26.30
2018-06-28T11:38:02.845Z,26.40
2018-06-28T11:40:37.896Z,26.30
2018-06-28T11:43:13.049Z,26.20
2018-06-28T11:45:48.014Z,26.10
2018-06-28T11:48:23.177Z,26.00
2018-06-28T11:50:58.336Z,26.00
2018-06-28T11:56:08.289Z,26.00
2018-06-28T11:58:43.302Z,25.90
2018-06-28T12:01:18.372Z,25.80
2018-06-28T12:03:53.499Z,25.90
2018-06-28T12:06:28.673Z,25.80
2018-06-28T12:09:03.980Z,25.90
2018-06-28T12:11:38.931Z,25.90
2018-06-28T12:14:15.227Z,25.90
2018-06-28T12:16:50.124Z,25.80
2018-06-28T12:19:26.016Z,25.90
2018-06-28T12:22:00.947Z,26.00
2018-06-28T12:24:36.067Z,26.00
2018-06-28T12:27:11.172Z,26.00
2018-06-28T12:29:46.239Z,25.90
2018-06-28T12:32:21.365Z,25.90
2018-06-28T12:34:56.592Z,25.80
2018-06-28T12:37:31.699Z,25.90
2018-06-28T12:40:06.782Z,25.90
2018-06-28T12:45:18.041Z,25.60
2018-06-28T12:48:04.292Z,25.80
2018-06-28T12:50:39.263Z,25.90
2018-06-28T12:53:14.419Z,26.00
2018-06-28T12:56:23.251Z,26.10
2018-06-28T12:58:59.914Z,25.90
2018-06-28T13:01:35.236Z,26.00
2018-06-28T13:04:10.208Z,26.10
2018-06-28T13:06:45.289Z,26.00
2018-06-28T13:09:21.240Z,26.20
2018-06-28T13:11:56.377Z,26.20
2018-06-28T13:14:31.537Z,26.20
2018-06-28T13:17:06.583Z,26.30
2018-06-28T13:19:41.499Z,26.20
2018-06-28T13:22:16.596Z,26.20
2018-06-28T13:24:51.664Z,26.40
2018-06-28T13:27:26.758Z,26.40
2018-06-28T13:30:01.957Z,26.50
2018-06-28T13:32:37.005Z,26.40
2018-06-28T13:35:12.069Z,26.50
2018-06-28T13:37:47.068Z,25.90
2018-06-28T13:40:22.083Z,25.90
2018-06-28T13:42:57.112Z,26.00
2018-06-28T13:45:32.275Z,26.20
2018-06-28T13:48:07.317Z,26.30
2018-06-28T13:53:17.004Z,26.30
2018-06-28T13:55:58.809Z,26.40
2018-06-28T13:58:33.760Z,26.40
2018-06-28T14:01:08.913Z,26.00
2018-06-28T14:03:44.182Z,26.00
2018-06-28T14:08:53.827Z,26.30
2018-06-28T14:11:28.956Z,26.40
2018-06-28T14:14:04.145Z,26.60
2018-06-28T14:16:39.295Z,26.70
2018-06-28T14:19:14.396Z,26.80
2018-06-28T14:21:49.332Z,26.60
2018-06-28T14:24:24.443Z,26.50
2018-06-28T14:27:00.300Z,26.50
2018-06-28T14:29:35.440Z,26.50
2018-06-28T14:32:10.560Z,26.50
2018-06-28T14:34:45.815Z,26.40
2018-06-28T14:37:20.844Z,26.50
2018-06-28T14:39:55.920Z,26.40
2018-06-28T14:42:31.023Z,26.50
2018-06-28T14:45:06.873Z,26.50
2018-06-28T14:50:16.635Z,26.40
2018-06-28T14:52:51.764Z,26.50
2018-06-28T14:55:26.956Z,26.60
2018-06-28T14:58:01.988Z,26.50
2018-06-28T15:00:37.031Z,26.60
2018-06-28T15:05:46.767Z,26.70
2018-06-28T15:08:21.700Z,26.60
2018-06-28T15:10:56.829Z,26.60
2018-06-28T15:13:32.008Z,26.60
2018-06-28T15:16:06.925Z,26.70
2018-06-28T15:18:42.076Z,26.60
2018-06-28T15:21:17.138Z,26.70
2018-06-28T15:23:52.208Z,26.70
2018-06-28T15:26:27.276Z,26.70
2018-06-28T15:29:02.321Z,26.40
2018-06-28T15:31:37.291Z,26.20
2018-06-28T15:34:12.260Z,26.20
2018-06-28T15:36:47.579Z,26.30
2018-06-28T15:39:22.716Z,26.20
2018-06-28T15:41:57.774Z,26.30
2018-06-28T15:44:32.900Z,26.20
2018-06-28T15:47:08.020Z,26.20
2018-06-28T15:49:43.145Z,26.30
2018-06-28T15:52:18.276Z,26.20
2018-06-28T15:54:53.387Z,26.20
2018-06-28T15:57:28.448Z,26.20
2018-06-28T16:00:04.323Z,26.30
2018-06-28T16:02:39.416Z,26.40
2018-06-28T16:05:15.634Z,26.50
2018-06-28T16:07:50.584Z,26.40
2018-06-28T16:10:25.719Z,26.40
2018-06-28T16:13:00.831Z,26.50
2018-06-28T16:15:36.185Z,26.40
2018-06-28T16:18:11.215Z,26.40
2018-06-28T16:20:46.158Z,26.50
2018-06-28T16:23:21.281Z,26.50
2018-06-28T16:25:56.309Z,26.50
2018-06-28T16:28:31.460Z,26.50
2018-06-28T16:31:06.551Z,26.40
2018-06-28T16:33:41.484Z,26.40
2018-06-28T16:36:16.425Z,26.30
2018-06-28T16:38:52.361Z,26.40
2018-06-28T16:41:27.501Z,26.40
2018-06-28T16:44:02.835Z,26.40
2018-06-28T16:46:37.937Z,26.30
2018-06-28T16:49:12.822Z,26.20
2018-06-28T16:51:48.031Z,26.20
2018-06-28T16:54:23.151Z,26.20
2018-06-28T16:56:58.260Z,26.20
2018-06-28T16:59:33.511Z,26.20
2018-06-28T17:02:08.576Z,26.30
2018-06-28T17:04:43.632Z,26.20
2018-06-28T17:07:18.551Z,26.20
2018-06-28T17:09:53.625Z,26.10
2018-06-28T17:12:28.764Z,26.20
2018-06-28T17:15:04.460Z,26.10
2018-06-28T17:17:39.548Z,26.10
2018-06-28T17:20:14.534Z,26.20
2018-06-28T17:22:49.476Z,26.10
2018-06-28T17:25:24.575Z,26.20
2018-06-28T17:27:59.626Z,26.20
2018-06-28T17:30:34.723Z,26.20
2018-06-28T17:33:09.823Z,26.10
2018-06-28T17:35:44.836Z,26.10
2018-06-28T17:38:20.037Z,26.10
2018-06-28T17:40:55.041Z,26.10
2018-06-28T17:43:30.021Z,26.00
2018-06-28T17:46:05.220Z,26.10
2018-06-28T17:48:40.271Z,26.00
2018-06-28T17:51:15.368Z,26.10
2018-06-28T17:53:50.515Z,26.10
2018-06-28T17:56:25.739Z,26.10
2018-06-28T17:59:00.800Z,26.00
2018-06-28T18:01:35.922Z,26.00
2018-06-28T18:04:10.976Z,26.10
2018-06-28T18:06:46.380Z,26.00
2018-06-28T18:09:21.335Z,25.90
2018-06-28T18:11:56.484Z,25.80
2018-06-28T18:14:31.635Z,25.90
2018-06-28T18:17:06.752Z,25.80
2018-06-28T18:19:41.841Z,25.70
2018-06-28T18:22:16.839Z,25.80
2018-06-28T18:24:51.927Z,25.80
2018-06-28T18:27:27.048Z,25.80
2018-06-28T18:30:02.220Z,25.80
2018-06-28T18:32:37.256Z,25.70
2018-06-28T18:35:12.325Z,25.70
2018-06-28T18:37:47.497Z,25.70
2018-06-28T18:40:22.528Z,25.70
2018-06-28T18:42:57.515Z,25.70
2018-06-28T18:45:32.510Z,25.60
2018-06-28T18:48:07.427Z,25.50
2018-06-28T18:50:42.600Z,25.60
2018-06-28T18:53:17.494Z,25.60
2018-06-28T18:55:52.564Z,25.50
2018-06-28T18:58:27.712Z,25.50
2018-06-28T19:01:02.625Z,25.50
2018-06-28T19:03:38.067Z,25.40
2018-06-28T19:06:13.195Z,25.40
2018-06-28T19:08:48.195Z,25.30
2018-06-28T19:11:23.378Z,25.30
2018-06-28T19:14:04.050Z,25.30
2018-06-28T19:16:44.636Z,25.20
2018-06-28T19:22:00.216Z,25.20
2018-06-28T19:24:35.265Z,25.20
2018-06-28T19:27:10.383Z,25.00
2018-06-28T19:29:51.705Z,24.90
2018-06-28T19:32:34.770Z,24.80
2018-06-28T19:35:10.237Z,24.80
2018-06-28T19:37:51.351Z,24.80
2018-06-28T19:40:32.438Z,24.80
2018-06-28T19:43:08.859Z,24.50
2018-06-28T19:45:43.812Z,24.60
2018-06-28T19:48:18.943Z,24.60
2018-06-28T19:50:59.554Z,24.50
2018-06-28T19:53:34.516Z,24.50
2018-06-28T19:56:14.754Z,24.50
2018-06-28T19:58:49.727Z,24.40
2018-06-28T20:01:30.236Z,24.40
2018-06-28T20:04:11.695Z,24.30
2018-06-28T20:06:46.752Z,24.10
2018-06-28T20:11:56.565Z,24.00
2018-06-28T20:14:37.044Z,23.90
2018-06-28T20:17:17.484Z,23.70
2018-06-28T20:22:33.176Z,23.70
2018-06-28T20:25:08.280Z,23.80
2018-06-28T20:27:48.948Z,23.70
2018-06-28T20:30:29.517Z,23.80
2018-06-28T20:33:09.856Z,23.70
2018-06-28T20:35:44.852Z,23.70
2018-06-28T20:40:54.558Z,23.60
2018-06-28T20:43:29.631Z,23.40
2018-06-28T20:46:04.892Z,23.30
2018-06-28T20:48:40.020Z,23.30
2018-06-28T20:51:15.104Z,23.60
2018-06-28T20:56:24.747Z,23.30
2018-06-28T20:58:59.935Z,23.20
2018-06-28T21:01:34.915Z,23.40
2018-06-28T21:06:44.724Z,23.10
2018-06-28T21:09:19.836Z,23.00
2018-06-28T21:11:54.973Z,22.80
2018-06-28T21:14:30.009Z,22.90
2018-06-28T21:17:05.039Z,23.00
2018-06-28T21:19:40.012Z,22.70
2018-06-28T21:22:15.112Z,22.70
2018-06-28T21:24:50.728Z,22.70
2018-06-28T21:27:25.676Z,22.50
2018-06-28T21:30:00.688Z,22.60
2018-06-28T21:32:35.979Z,22.30
2018-06-28T21:35:11.057Z,22.60
2018-06-28T21:37:46.005Z,22.30
2018-06-28T21:40:21.152Z,22.10
2018-06-28T21:42:56.120Z,22.10
2018-06-28T21:45:31.200Z,22.20
2018-06-28T21:48:06.467Z,22.30
2018-06-28T21:50:41.419Z,22.10
2018-06-28T21:53:16.653Z,22.10
2018-06-28T21:55:51.748Z,21.90
2018-06-28T21:58:26.812Z,22.00
2018-06-28T22:01:01.840Z,22.10
2018-06-28T22:03:36.908Z,22.30
2018-06-28T22:06:11.984Z,22.10
2018-06-28T22:08:47.128Z,21.90
2018-06-28T22:11:22.231Z,21.80
2018-06-28T22:16:32.396Z,21.80
2018-06-28T22:19:07.453Z,21.80
2018-06-28T22:21:42.564Z,21.80
2018-06-28T22:24:17.512Z,21.70
2018-06-28T22:26:52.555Z,21.60
2018-06-28T22:29:27.904Z,21.50
2018-06-28T22:32:02.935Z,21.60
2018-06-28T22:34:37.972Z,21.70
2018-06-28T22:37:13.089Z,21.50
2018-06-28T22:39:48.198Z,21.50
2018-06-28T22:42:23.356Z,21.40
2018-06-28T22:44:58.664Z,21.40
2018-06-28T22:47:34.008Z,21.30
2018-06-28T22:50:09.040Z,21.30
2018-06-28T22:52:44.076Z,21.20
2018-06-28T22:55:19.060Z,20.90
2018-06-28T22:57:54.648Z,21.00
2018-06-28T23:00:30.627Z,21.00
2018-06-28T23:03:05.731Z,21.00
2018-06-28T23:05:40.976Z,21.10
2018-06-28T23:08:16.100Z,20.90
2018-06-28T23:10:51.267Z,21.00
2018-06-28T23:13:26.288Z,20.60
2018-06-28T23:16:01.225Z,20.40
2018-06-28T23:18:36.472Z,20.40
2018-06-28T23:21:11.646Z,20.40
2018-06-28T23:23:46.452Z,20.40
2018-06-28T23:26:21.444Z,20.50
2018-06-28T23:28:56.400Z,20.40
2018-06-28T23:34:06.488Z,20.40
2018-06-28T23:36:41.829Z,20.40
2018-06-28T23:39:16.808Z,20.50
2018-06-28T23:41:51.950Z,20.20
2018-06-28T23:44:27.003Z,20.20
2018-06-28T23:47:01.965Z,19.60
2018-06-28T23:49:37.052Z,19.50
2018-06-28T23:52:12.167Z,19.50
2018-06-28T23:54:47.245Z,19.60
2018-06-28T23:57:22.330Z,19.80
2018-06-28T23:59:57.380Z,19.80
